Time;durP1;ratioP1;P1;durP2;ratioP2;P2;SDS_P1;SDS_P2;PMS_P1;PMS_P2;Temp;Humidity;BMP_temperature;BMP_pressure;BME280_temperature;BME280_humidity;BME280_pressure;Samples;Min_cycle;Max_cycle;Signal;HPM_P1;HPM_P2
2022/07/13 00:01:12;;;;;;;3.20;1.88;;;20.40;99.90;;;;;;5036437;28;20026;-58
2022/07/13 00:03:37;;;;;;;4.72;2.15;;;20.40;99.90;;;;;;5036541;28;20030;-58
2022/07/13 00:06:04;;;;;;;3.90;1.60;;;20.40;99.90;;;;;;5036373;28;20434;-58
2022/07/13 00:08:29;;;;;;;3.03;1.88;;;20.40;99.90;;;;;;5049069;28;20493;-58
2022/07/13 00:10:55;;;;;;;5.30;1.90;;;20.30;99.90;;;;;;5041212;28;20032;-58
2022/07/13 00:13:21;;;;;;;3.25;1.60;;;20.30;99.90;;;;;;5041356;28;20505;-58
2022/07/13 00:15:46;;;;;;;4.88;1.75;;;20.30;99.90;;;;;;5038942;28;20384;-59
2022/07/13 00:18:13;;;;;;;3.95;1.30;;;20.30;99.90;;;;;;5038813;28;20120;-59
2022/07/13 00:20:39;;;;;;;3.25;1.40;;;20.30;99.90;;;;;;5041303;28;20029;-59
2022/07/13 00:23:04;;;;;;;4.55;1.35;;;20.20;99.90;;;;;;5047874;28;20051;-58
2022/07/13 00:25:30;;;;;;;4.03;1.48;;;20.20;99.90;;;;;;5031406;28;20026;-59
2022/07/13 00:27:55;;;;;;;7.50;1.80;;;20.20;99.90;;;;;;5047779;28;20923;-58
2022/07/13 00:30:21;;;;;;;1.48;1.38;;;20.20;99.90;;;;;;5043425;28;20469;-61
2022/07/13 00:32:47;;;;;;;4.75;1.63;;;20.20;99.90;;;;;;5048979;28;20025;-58
2022/07/13 00:35:13;;;;;;;2.53;1.48;;;20.20;99.90;;;;;;5034961;28;20102;-58
2022/07/13 00:37:38;;;;;;;3.83;1.30;;;20.10;99.90;;;;;;5039186;28;20501;-58
2022/07/13 00:40:04;;;;;;;2.08;1.60;;;20.10;99.90;;;;;;5039742;28;20029;-59
2022/07/13 00:42:30;;;;;;;2.35;1.30;;;20.00;99.90;;;;;;5038263;28;20029;-59
2022/07/13 00:44:56;;;;;;;3.95;1.75;;;20.00;99.90;;;;;;5025083;28;20071;-59
2022/07/13 00:47:22;;;;;;;3.83;1.33;;;20.00;99.90;;;;;;5039015;28;20045;-61
2022/07/13 00:49:49;;;;;;;2.53;1.50;;;20.00;99.90;;;;;;5048649;28;20037;-59
2022/07/13 00:52:15;;;;;;;3.65;2.10;;;20.00;99.90;;;;;;5043557;28;20485;-60
2022/07/13 00:54:43;;;;;;;3.10;1.40;;;20.00;99.90;;;;;;5039276;28;20576;-58
2022/07/13 00:57:11;;;;;;;1.95;1.30;;;20.00;99.90;;;;;;5042955;28;20052;-59
2022/07/13 00:59:37;;;;;;;2.65;1.80;;;20.10;99.90;;;;;;5031618;28;20033;-59
2022/07/13 01:02:03;;;;;;;4.20;1.98;;;20.00;99.90;;;;;;5036988;28;20032;-60
2022/07/13 01:04:29;;;;;;;2.95;1.42;;;20.10;99.90;;;;;;5027958;28;20040;-59
2022/07/13 01:06:55;;;;;;;1.85;1.38;;;20.20;99.90;;;;;;5033066;28;20490;-58
2022/07/13 01:09:25;;;;;;;3.90;1.27;;;20.10;99.90;;;;;;5035218;28;20492;-58
2022/07/13 01:11:52;;;;;;;8.95;1.90;;;20.10;99.90;;;;;;5031343;28;20032;-58
2022/07/13 01:14:17;;;;;;;4.30;1.17;;;20.10;99.90;;;;;;5030376;28;20083;-58
2022/07/13 01:16:43;;;;;;;2.50;1.20;;;20.00;99.90;;;;;;5023344;28;20021;-58
2022/07/13 01:19:11;;;;;;;5.43;1.40;;;20.10;99.90;;;;;;5038258;28;20397;-58
2022/07/13 01:21:44;;;;;;;3.60;1.20;;;20.00;99.90;;;;;;5034328;28;20456;-58
2022/07/13 01:24:11;;;;;;;1.63;1.33;;;20.00;99.90;;;;;;5032726;28;20351;-58
2022/07/13 01:26:38;;;;;;;2.80;1.25;;;19.90;99.90;;;;;;5028447;28;20497;-58
2022/07/13 01:29:04;;;;;;;1.42;1.23;;;19.90;99.90;;;;;;5045729;28;20033;-58
2022/07/13 01:31:40;;;;;;;4.03;1.50;;;19.80;99.90;;;;;;5029161;28;20033;-58
2022/07/13 01:34:07;;;;;;;2.53;1.38;;;19.80;99.90;;;;;;5032707;28;20044;-58
2022/07/13 01:36:36;;;;;;;4.55;1.58;;;19.80;99.90;;;;;;5032160;28;20386;-58
2022/07/13 01:39:04;;;;;;;1.85;1.58;;;19.70;99.90;;;;;;5025064;28;20031;-58
2022/07/13 01:41:29;;;;;;;1.27;1.17;;;19.70;99.90;;;;;;5034971;28;20108;-58
2022/07/13 01:43:57;;;;;;;2.42;1.33;;;19.60;99.90;;;;;;5032411;28;20064;-58
2022/07/13 01:46:24;;;;;;;3.45;1.73;;;19.70;99.90;;;;;;5038266;28;20017;-58
2022/07/13 01:48:50;;;;;;;2.05;1.15;;;19.70;99.90;;;;;;5034089;28;20038;-59
2022/07/13 01:51:16;;;;;;;3.33;1.50;;;19.60;99.90;;;;;;5048063;28;20032;-58
2022/07/13 01:53:42;;;;;;;3.58;1.38;;;19.60;99.90;;;;;;5039285;28;20029;-58
2022/07/13 01:56:07;;;;;;;3.75;1.55;;;19.60;99.90;;;;;;5031013;28;20115;-58
2022/07/13 01:58:33;;;;;;;5.70;2.00;;;19.60;99.90;;;;;;5036774;28;20044;-59
2022/07/13 02:00:59;;;;;;;2.47;1.20;;;19.60;99.90;;;;;;5036075;28;20028;-59
2022/07/13 02:03:25;;;;;;;3.95;1.25;;;19.60;99.90;;;;;;5042801;28;20033;-58
2022/07/13 02:05:51;;;;;;;3.25;1.23;;;19.50;99.90;;;;;;5031802;28;20132;-59
2022/07/13 02:08:17;;;;;;;3.38;1.23;;;19.50;99.90;;;;;;5039414;28;20443;-58
2022/07/13 02:10:43;;;;;;;2.17;1.20;;;19.40;99.90;;;;;;5033585;28;20558;-58
2022/07/13 02:13:12;;;;;;;1.63;1.50;;;19.50;99.90;;;;;;5029012;28;20025;-58
2022/07/13 02:15:39;;;;;;;3.17;1.60;;;19.50;99.90;;;;;;5021396;28;20022;-57
2022/07/13 02:18:05;;;;;;;2.00;1.42;;;19.60;99.90;;;;;;5037494;28;20044;-58
2022/07/13 02:20:31;;;;;;;2.95;1.27;;;19.50;99.90;;;;;;5037496;28;20052;-58
2022/07/13 02:22:57;;;;;;;2.92;1.55;;;19.50;99.90;;;;;;5032944;28;20042;-60
2022/07/13 02:25:22;;;;;;;5.07;1.55;;;19.50;99.90;;;;;;5031238;28;20555;-59
2022/07/13 02:27:48;;;;;;;2.95;1.55;;;19.50;99.90;;;;;;5034742;28;20082;-59
2022/07/13 02:30:15;;;;;;;3.13;1.40;;;19.40;99.90;;;;;;5034994;28;20064;-58
2022/07/13 02:32:42;;;;;;;2.35;1.60;;;19.40;99.90;;;;;;5029724;28;20135;-60
2022/07/13 02:35:08;;;;;;;3.22;1.45;;;19.30;99.90;;;;;;5030033;28;20029;-59
2022/07/13 02:37:34;;;;;;;3.67;1.73;;;19.30;99.90;;;;;;5037246;28;20033;-59
2022/07/13 02:40:00;;;;;;;1.45;1.35;;;19.30;99.90;;;;;;5032781;28;20037;-58
2022/07/13 02:42:25;;;;;;;3.00;1.30;;;19.30;99.90;;;;;;5037315;28;20084;-59
2022/07/13 02:44:52;;;;;;;1.70;1.55;;;19.20;99.90;;;;;;5041124;28;20017;-59
2022/07/13 02:47:18;;;;;;;2.10;1.45;;;19.20;99.90;;;;;;5032612;28;20021;-59
2022/07/13 02:49:44;;;;;;;2.55;1.52;;;19.20;99.90;;;;;;5032475;28;20060;-59
2022/07/13 02:52:10;;;;;;;1.65;1.45;;;19.20;99.90;;;;;;5034846;28;20113;-59
2022/07/13 02:54:36;;;;;;;3.00;1.25;;;19.30;99.90;;;;;;5030939;28;20021;-60
2022/07/13 02:57:01;;;;;;;4.30;1.40;;;19.20;99.90;;;;;;5029952;28;20148;-59
2022/07/13 02:59:32;;;;;;;4.03;1.40;;;19.10;99.90;;;;;;5038223;28;20026;-59
2022/07/13 03:01:57;;;;;;;3.47;1.25;;;19.10;99.90;;;;;;5028797;28;20044;-59
2022/07/13 03:04:23;;;;;;;3.03;1.40;;;19.10;99.90;;;;;;5027885;28;20025;-59
2022/07/13 03:06:48;;;;;;;1.50;1.40;;;19.10;99.90;;;;;;5032546;28;20036;-59
2022/07/13 03:09:14;;;;;;;1.63;1.52;;;19.10;99.90;;;;;;5030931;28;20033;-59
2022/07/13 03:11:40;;;;;;;2.10;1.83;;;19.10;99.90;;;;;;5024552;28;20082;-59
2022/07/13 03:14:05;;;;;;;1.80;1.40;;;19.10;99.90;;;;;;5037326;28;20128;-59
2022/07/13 03:16:32;;;;;;;1.73;1.63;;;19.10;99.90;;;;;;5033182;28;20037;-59
2022/07/13 03:18:59;;;;;;;4.00;1.60;;;19.00;99.90;;;;;;5038098;28;20025;-59
2022/07/13 03:21:24;;;;;;;4.10;1.80;;;19.00;99.90;;;;;;5032156;28;20036;-59
2022/07/13 03:23:50;;;;;;;3.75;1.45;;;19.00;99.90;;;;;;5041042;28;20037;-59
2022/07/13 03:26:16;;;;;;;2.42;1.70;;;19.10;99.90;;;;;;5029626;28;20385;-58
2022/07/13 03:28:41;;;;;;;1.50;1.40;;;19.10;99.90;;;;;;5046737;28;20061;-59
2022/07/13 03:31:07;;;;;;;3.83;1.80;;;19.00;99.90;;;;;;5033401;28;20025;-58
2022/07/13 03:33:33;;;;;;;2.72;1.52;;;19.00;99.90;;;;;;5038463;28;20025;-58
2022/07/13 03:35:58;;;;;;;3.05;1.88;;;19.00;99.90;;;;;;5039513;28;20029;-58
2022/07/13 03:38:24;;;;;;;3.53;2.42;;;19.00;99.90;;;;;;5036352;28;20029;-58
2022/07/13 03:40:49;;;;;;;3.15;2.00;;;19.00;99.90;;;;;;5037373;28;20490;-59
2022/07/13 03:43:15;;;;;;;3.65;1.73;;;18.90;99.90;;;;;;5029931;28;20127;-59
2022/07/13 03:45:42;;;;;;;5.20;1.60;;;18.90;99.90;;;;;;5037498;28;20025;-59
2022/07/13 03:48:08;;;;;;;3.78;1.95;;;18.90;99.90;;;;;;5035772;28;20038;-59
2022/07/13 03:50:34;;;;;;;4.13;1.70;;;18.80;99.90;;;;;;5038409;28;20037;-59
2022/07/13 03:52:59;;;;;;;2.83;1.52;;;18.80;99.90;;;;;;5046790;28;20044;-59
2022/07/13 03:55:25;;;;;;;2.97;1.52;;;18.80;99.90;;;;;;5022763;28;20032;-59
2022/07/13 03:57:51;;;;;;;4.70;1.98;;;18.80;99.90;;;;;;5036334;28;20480;-59
2022/07/13 04:00:16;;;;;;;1.67;1.23;;;18.70;99.90;;;;;;5033964;28;20432;-60
2022/07/13 04:02:43;;;;;;;4.38;1.95;;;18.70;99.90;;;;;;5042244;28;20024;-59
2022/07/13 04:05:10;;;;;;;5.30;2.15;;;18.70;99.90;;;;;;5045408;28;20137;-59
2022/07/13 04:07:35;;;;;;;4.65;2.10;;;18.70;99.90;;;;;;5038643;28;20494;-59
2022/07/13 04:10:01;;;;;;;3.33;1.85;;;18.70;99.90;;;;;;5044405;28;20124;-59
2022/07/13 04:12:27;;;;;;;3.70;2.47;;;18.60;99.90;;;;;;5026938;28;20121;-59
2022/07/13 04:14:52;;;;;;;9.10;2.45;;;18.60;99.90;;;;;;5042451;28;20032;-59
2022/07/13 04:17:18;;;;;;;6.35;2.17;;;18.60;99.90;;;;;;5028541;28;20362;-59
2022/07/13 04:19:43;;;;;;;3.63;2.30;;;18.60;99.90;;;;;;5022744;28;20489;-60
2022/07/13 04:22:09;;;;;;;3.63;2.22;;;18.50;99.90;;;;;;5040040;28;20042;-59
2022/07/13 04:24:35;;;;;;;4.35;2.25;;;18.50;99.90;;;;;;5031813;28;20021;-59
2022/07/13 04:27:00;;;;;;;2.67;1.73;;;18.50;99.90;;;;;;5044516;28;20037;-60
2022/07/13 04:29:26;;;;;;;3.22;2.00;;;18.40;99.90;;;;;;5040432;28;20037;-59
2022/07/13 04:31:52;;;;;;;3.33;2.08;;;18.40;99.90;;;;;;5031397;28;20022;-59
2022/07/13 04:34:17;;;;;;;5.00;2.20;;;18.40;99.90;;;;;;5035025;28;20044;-59
2022/07/13 04:36:43;;;;;;;2.38;2.15;;;18.40;99.90;;;;;;5031017;28;20034;-59
2022/07/13 04:39:10;;;;;;;3.30;2.00;;;18.50;99.90;;;;;;5044003;28;20026;-59
2022/07/13 04:41:35;;;;;;;4.13;2.22;;;18.50;99.90;;;;;;5036254;28;20042;-59
2022/07/13 04:44:01;;;;;;;2.83;1.90;;;18.50;99.90;;;;;;5018615;28;20376;-59
2022/07/13 04:46:27;;;;;;;7.43;2.47;;;18.60;99.90;;;;;;5040965;28;20023;-60
2022/07/13 04:48:53;;;;;;;3.72;1.90;;;18.70;99.90;;;;;;5044485;28;20076;-59
2022/07/13 04:51:19;;;;;;;4.30;2.17;;;18.70;99.90;;;;;;5036315;28;20029;-59
2022/07/13 04:53:45;;;;;;;10.30;2.38;;;18.80;99.90;;;;;;5039206;28;20040;-59
2022/07/13 04:56:12;;;;;;;4.00;1.85;;;18.80;99.90;;;;;;5037446;28;20116;-59
2022/07/13 04:58:38;;;;;;;2.33;1.63;;;18.90;99.90;;;;;;5031081;28;20025;-59
2022/07/13 05:01:06;;;;;;;3.63;2.00;;;19.00;99.90;;;;;;5040019;28;20048;-59
2022/07/13 05:03:32;;;;;;;3.55;2.00;;;19.10;99.90;;;;;;5039587;28;20033;-59
2022/07/13 05:05:58;;;;;;;3.42;2.03;;;19.10;99.90;;;;;;5043271;28;20025;-59
2022/07/13 05:08:25;;;;;;;2.72;1.92;;;19.10;99.90;;;;;;5041551;28;20132;-59
2022/07/13 05:10:52;;;;;;;3.17;2.33;;;19.20;99.90;;;;;;5037753;28;20065;-59
2022/07/13 05:13:17;;;;;;;7.72;2.50;;;19.30;99.90;;;;;;5032490;28;20029;-59
2022/07/13 05:15:45;;;;;;;6.28;2.47;;;19.30;99.90;;;;;;5030836;28;20512;-59
2022/07/13 05:18:11;;;;;;;3.80;1.83;;;19.40;99.90;;;;;;5035909;28;20053;-59
2022/07/13 05:20:36;;;;;;;4.55;2.20;;;19.40;99.90;;;;;;5040450;28;20532;-58
2022/07/13 05:23:02;;;;;;;4.15;2.42;;;19.40;99.90;;;;;;5034859;28;20114;-59
2022/07/13 05:25:28;;;;;;;2.75;2.50;;;19.50;99.90;;;;;;5038488;28;20037;-58
2022/07/13 05:27:54;;;;;;;6.85;2.45;;;19.50;99.90;;;;;;5041848;28;20040;-60
2022/07/13 05:30:20;;;;;;;2.65;2.20;;;19.60;99.90;;;;;;5044205;28;20029;-60
2022/07/13 05:32:45;;;;;;;3.15;2.30;;;19.60;99.90;;;;;;5030048;28;20036;-60
2022/07/13 05:35:11;;;;;;;3.28;2.40;;;19.70;99.90;;;;;;5034381;28;20040;-60
2022/07/13 05:37:37;;;;;;;3.75;2.30;;;19.70;99.90;;;;;;5036292;28;20116;-60
2022/07/13 05:40:04;;;;;;;4.93;2.80;;;19.70;99.90;;;;;;5034492;28;20417;-60
2022/07/13 05:42:30;;;;;;;3.90;2.08;;;19.80;99.90;;;;;;5035375;28;20020;-58
2022/07/13 05:44:56;;;;;;;4.72;2.58;;;19.90;99.90;;;;;;5046768;28;20040;-60
2022/07/13 05:47:22;;;;;;;5.75;2.95;;;20.10;99.90;;;;;;5034103;28;20103;-60
2022/07/13 05:49:47;;;;;;;7.30;2.83;;;20.10;99.90;;;;;;5035231;28;20072;-59
2022/07/13 05:52:13;;;;;;;6.35;2.50;;;20.20;99.90;;;;;;5036569;28;20025;-59
2022/07/13 05:54:39;;;;;;;9.27;3.63;;;20.30;99.90;;;;;;5034760;28;20033;-59
2022/07/13 05:57:04;;;;;;;7.35;3.50;;;20.30;99.90;;;;;;5032320;28;20029;-59
2022/07/13 05:59:32;;;;;;;6.45;2.90;;;20.30;99.90;;;;;;5031113;28;20025;-58
2022/07/13 06:01:59;;;;;;;7.47;3.80;;;20.50;99.90;;;;;;5037444;28;20032;-58
2022/07/13 06:04:24;;;;;;;5.72;3.78;;;20.60;99.90;;;;;;5040485;28;20021;-58
2022/07/13 06:06:50;;;;;;;7.45;3.17;;;20.70;99.90;;;;;;5029389;28;20033;-58
2022/07/13 06:09:16;;;;;;;6.63;3.42;;;20.80;99.90;;;;;;5027898;28;20485;-58
2022/07/13 06:11:41;;;;;;;4.13;2.88;;;20.90;99.90;;;;;;5031291;28;20381;-58
2022/07/13 06:14:07;;;;;;;4.47;3.33;;;21.00;99.90;;;;;;5035744;28;20077;-59
2022/07/13 06:16:33;;;;;;;4.25;2.72;;;21.10;99.90;;;;;;5033199;28;20060;-60
2022/07/13 06:18:59;;;;;;;7.93;3.28;;;21.20;99.90;;;;;;5036212;28;20052;-58
2022/07/13 06:21:25;;;;;;;5.78;4.80;;;21.30;99.90;;;;;;5041348;28;20041;-59
2022/07/13 06:23:51;;;;;;;8.27;3.20;;;21.40;99.90;;;;;;5033791;28;20029;-59
2022/07/13 06:26:16;;;;;;;5.25;3.40;;;21.50;99.90;;;;;;5035461;28;20029;-59
2022/07/13 06:28:42;;;;;;;4.75;3.05;;;21.50;99.90;;;;;;5027692;28;20045;-59
2022/07/13 06:31:08;;;;;;;6.85;3.90;;;21.70;99.90;;;;;;5029754;28;20500;-59
2022/07/13 06:33:35;;;;;;;16.65;4.50;;;21.70;99.90;;;;;;5034508;28;20033;-59
2022/07/13 06:36:01;;;;;;;5.38;3.40;;;21.80;99.90;;;;;;5037897;28;20159;-59
2022/07/13 06:38:26;;;;;;;6.55;3.70;;;21.80;99.90;;;;;;5033142;28;20123;-59
2022/07/13 06:41:01;;;;;;;11.07;3.30;;;21.90;99.90;;;;;;5037223;28;20925;-59
2022/07/13 06:43:27;;;;;;;4.18;3.08;;;21.90;99.90;;;;;;5038442;28;20102;-59
2022/07/13 06:45:52;;;;;;;5.65;3.05;;;22.10;99.90;;;;;;5034592;28;20471;-59
2022/07/13 06:48:18;;;;;;;5.22;3.97;;;22.10;99.90;;;;;;5023323;28;20538;-60
2022/07/13 06:50:44;;;;;;;5.78;3.20;;;22.20;99.90;;;;;;5030287;28;20029;-59
2022/07/13 06:53:10;;;;;;;8.85;3.15;;;22.30;99.90;;;;;;5029108;28;20021;-59
2022/07/13 06:55:35;;;;;;;9.13;3.30;;;22.30;99.90;;;;;;5027313;28;20064;-59
2022/07/13 06:58:02;;;;;;;6.25;3.10;;;22.40;99.90;;;;;;5026989;28;20138;-59
2022/07/13 07:00:28;;;;;;;15.88;3.80;;;22.50;99.90;;;;;;5030474;28;20033;-59
2022/07/13 07:02:54;;;;;;;9.85;2.97;;;22.60;99.90;;;;;;5038305;28;20087;-58
2022/07/13 07:05:20;;;;;;;7.50;2.90;;;22.70;99.90;;;;;;5033258;28;20466;-59
2022/07/13 07:07:46;;;;;;;5.05;2.60;;;22.80;99.90;;;;;;5035835;28;20029;-59
2022/07/13 07:10:12;;;;;;;5.22;2.90;;;22.80;99.90;;;;;;5028950;28;20373;-59
2022/07/13 07:12:38;;;;;;;7.63;3.03;;;22.80;99.90;;;;;;5031088;28;20033;-59
2022/07/13 07:15:04;;;;;;;6.32;2.55;;;22.90;99.90;;;;;;5018274;28;20038;-59
2022/07/13 07:17:30;;;;;;;5.57;2.53;;;22.90;99.90;;;;;;5024842;28;20032;-59
2022/07/13 07:19:59;;;;;;;4.13;2.55;;;22.90;99.90;;;;;;5029018;28;20539;-58
2022/07/13 07:22:25;;;;;;;6.50;3.03;;;23.00;99.90;;;;;;5030334;28;20486;-58
2022/07/13 07:24:51;;;;;;;6.32;2.65;;;23.10;99.90;;;;;;5028919;28;20034;-60
2022/07/13 07:27:17;;;;;;;8.57;3.10;;;23.10;99.90;;;;;;5028318;28;20965;-59
2022/07/13 07:29:43;;;;;;;4.13;2.75;;;23.20;99.90;;;;;;5032095;28;20114;-59
2022/07/13 07:32:09;;;;;;;7.53;2.50;;;23.30;99.90;;;;;;5035103;28;20060;-61
2022/07/13 07:34:36;;;;;;;6.00;2.65;;;23.40;99.90;;;;;;5029234;28;20042;-60
2022/07/13 07:37:03;;;;;;;5.63;2.30;;;23.50;99.90;;;;;;5029059;28;20033;-62
2022/07/13 07:39:29;;;;;;;3.53;2.72;;;23.60;99.90;;;;;;5029977;28;20442;-60
2022/07/13 07:41:55;;;;;;;5.75;2.92;;;23.70;99.90;;;;;;5028596;28;20040;-58
2022/07/13 07:44:21;;;;;;;7.43;3.03;;;23.80;99.90;;;;;;5028836;28;20041;-58
2022/07/13 07:46:47;;;;;;;6.32;2.65;;;23.80;99.90;;;;;;5033467;28;20029;-58
2022/07/13 07:49:15;;;;;;;3.80;2.40;;;24.00;99.90;;;;;;5020163;28;20112;-59
2022/07/13 07:51:41;;;;;;;4.45;2.30;;;24.00;99.90;;;;;;5021812;28;20685;-58
2022/07/13 07:54:07;;;;;;;4.57;2.10;;;24.10;99.90;;;;;;5021118;28;20045;-57
2022/07/13 07:56:34;;;;;;;5.43;2.60;;;24.20;99.90;;;;;;5031150;28;20025;-59
2022/07/13 07:59:00;;;;;;;6.53;2.58;;;24.30;99.90;;;;;;5027511;28;20086;-58
2022/07/13 08:01:27;;;;;;;6.22;2.65;;;24.40;99.90;;;;;;5027420;28;20100;-58
2022/07/13 08:03:54;;;;;;;3.80;1.80;;;24.50;99.90;;;;;;5023964;28;20418;-59
2022/07/13 08:06:20;;;;;;;4.55;2.25;;;24.50;99.90;;;;;;5032664;28;20025;-57
2022/07/13 08:08:46;;;;;;;4.55;1.98;;;24.50;99.90;;;;;;5034164;28;20454;-57
2022/07/13 08:11:16;;;;;;;5.57;2.55;;;24.60;99.90;;;;;;5026674;28;20099;-58
2022/07/13 08:13:42;;;;;;;9.10;2.58;;;24.60;99.90;;;;;;5017725;28;20048;-58
2022/07/13 08:16:08;;;;;;;6.10;2.55;;;24.70;99.90;;;;;;5028306;28;20036;-59
2022/07/13 08:18:34;;;;;;;7.60;2.08;;;24.70;99.90;;;;;;5026665;28;20025;-59
2022/07/13 08:21:00;;;;;;;5.28;2.08;;;24.70;99.90;;;;;;5029972;28;20041;-59
2022/07/13 08:26:10;;;;;;;2.63;1.73;;;24.80;99.90;;;;;;5031753;28;20071;-59
2022/07/13 08:28:36;;;;;;;5.20;2.05;;;24.90;99.90;;;;;;5028102;28;20041;-59
2022/07/13 08:31:02;;;;;;;3.88;1.38;;;24.90;99.90;;;;;;5029315;28;20032;-59
2022/07/13 08:38:35;;;;;;;4.63;1.65;;;24.90;99.90;;;;;;5037020;28;20021;-59
2022/07/13 08:39:07;;;;;;;1.35;1.15;;;24.90;99.90;;;;;;5024947;28;20056;-59
2022/07/13 08:41:33;;;;;;;5.50;1.70;;;24.90;99.90;;;;;;5015456;28;20065;-59
2022/07/13 08:44:00;;;;;;;8.07;2.58;;;24.90;99.90;;;;;;5027115;28;20449;-58
2022/07/13 08:46:26;;;;;;;2.63;1.77;;;24.90;99.90;;;;;;5027118;28;20025;-57
2022/07/13 08:48:55;;;;;;;4.13;1.35;;;25.00;99.90;;;;;;5030820;28;20140;-58
2022/07/13 08:51:21;;;;;;;4.78;2.58;;;25.00;99.90;;;;;;5025251;28;20120;-59
2022/07/13 08:53:49;;;;;;;3.13;1.52;;;25.20;99.90;;;;;;5026621;28;20128;-59
2022/07/13 08:56:15;;;;;;;2.30;1.15;;;25.40;99.90;;;;;;5036382;28;20026;-59
2022/07/13 08:58:41;;;;;;;5.93;2.05;;;25.40;99.90;;;;;;5016716;28;20509;-59
2022/07/13 09:01:10;;;;;;;6.43;2.60;;;25.40;99.90;;;;;;5034547;28;20032;-59
2022/07/13 09:03:37;;;;;;;4.68;1.85;;;25.70;99.90;;;;;;5017095;28;20029;-58
2022/07/13 09:06:03;;;;;;;5.90;1.85;;;26.00;99.90;;;;;;5019945;28;20030;-59
2022/07/13 09:08:29;;;;;;;3.28;1.48;;;26.20;99.80;;;;;;5019720;28;20504;-59
2022/07/13 09:10:57;;;;;;;5.15;1.52;;;26.30;97.40;;;;;;5023485;28;20029;-59
2022/07/13 09:13:36;;;;;;;3.17;1.40;;;26.50;97.50;;;;;;5019714;28;20052;-59
2022/07/13 09:16:19;;;;;;;3.45;1.75;;;26.60;95.90;;;;;;5025741;28;20599;-59
2022/07/13 09:18:50;;;;;;;5.22;1.67;;;26.70;95.30;;;;;;5020476;28;20398;-60
2022/07/13 09:21:16;;;;;;;4.50;1.88;;;27.00;95.10;;;;;;5029454;28;20041;-57
2022/07/13 09:23:42;;;;;;;6.20;1.90;;;27.30;94.10;;;;;;5033250;28;20037;-58
2022/07/13 09:26:08;;;;;;;3.63;2.20;;;27.60;95.20;;;;;;5036521;28;20581;-59
2022/07/13 09:28:42;;;;;;;1.48;1.38;;;27.70;93.50;;;;;;5028863;28;20477;-59
2022/07/13 09:31:10;;;;;;;9.73;1.83;;;27.60;92.10;;;;;;5035686;28;20107;-59
2022/07/13 09:33:37;;;;;;;2.13;1.23;;;27.80;93.20;;;;;;5030386;28;20029;-59
2022/07/13 09:36:16;;;;;;;33.42;20.13;;;27.70;91.70;;;;;;5029320;28;20033;-59
2022/07/13 09:38:47;;;;;;;3.08;1.50;;;28.00;90.60;;;;;;5035840;28;20040;-58
2022/07/13 09:41:18;;;;;;;4.10;2.33;;;28.20;88.90;;;;;;5029795;28;20432;-59
2022/07/13 09:47:00;;;;;;;5.25;2.00;;;28.20;90.10;;;;;;5031241;28;20160;-58
2022/07/13 09:49:39;;;;;;;4.05;1.42;;;28.30;88.30;;;;;;5029379;28;20056;-60
2022/07/13 09:52:07;;;;;;;8.52;1.90;;;28.20;87.90;;;;;;5030592;28;20022;-59
2022/07/13 09:54:34;;;;;;;3.97;1.42;;;28.40;86.90;;;;;;5031614;28;20037;-59
2022/07/13 09:57:05;;;;;;;7.90;1.65;;;28.40;86.10;;;;;;5031358;28;20086;-59
2022/07/13 09:59:31;;;;;;;3.72;1.15;;;28.60;86.20;;;;;;5025350;28;20029;-59
2022/07/13 10:01:57;;;;;;;3.42;1.40;;;28.50;86.70;;;;;;5033998;28;20430;-60
2022/07/13 10:04:24;;;;;;;5.32;1.40;;;28.40;87.50;;;;;;5037126;28;20028;-59
2022/07/13 10:06:50;;;;;;;4.05;1.23;;;28.50;88.40;;;;;;5030717;28;20052;-59
2022/07/13 10:09:25;;;;;;;2.33;1.60;;;28.50;86.80;;;;;;5031960;28;20045;-60
2022/07/13 10:11:51;;;;;;;3.33;1.40;;;28.60;88.60;;;;;;5030076;28;20038;-57
2022/07/13 10:14:18;;;;;;;2.47;1.58;;;28.60;87.20;;;;;;5030983;28;20037;-59
2022/07/13 10:16:45;;;;;;;4.07;1.40;;;28.60;87.50;;;;;;5031008;28;20092;-59
2022/07/13 10:19:11;;;;;;;3.13;1.90;;;28.40;86.20;;;;;;5021827;28;20025;-59
2022/07/13 10:21:58;;;;;;;9.30;1.95;;;28.40;90.70;;;;;;5022182;28;20128;-59
2022/07/13 10:24:24;;;;;;;2.85;1.27;;;28.70;88.00;;;;;;5019241;28;20029;-59
2022/07/13 10:26:50;;;;;;;3.00;1.50;;;28.60;85.90;;;;;;5025356;28;20028;-59
2022/07/13 10:29:15;;;;;;;2.38;1.52;;;28.80;85.30;;;;;;5032157;28;20072;-58
2022/07/13 10:31:43;;;;;;;5.28;1.58;;;29.00;85.00;;;;;;5027096;28;20544;-59
2022/07/13 10:34:11;;;;;;;1.60;1.20;;;29.10;85.30;;;;;;5022950;28;20108;-59
2022/07/13 10:36:50;;;;;;;3.78;1.58;;;29.50;83.80;;;;;;5009081;28;20026;-59
2022/07/13 10:39:16;;;;;;;3.33;1.60;;;29.10;84.80;;;;;;5026000;28;20116;-59
2022/07/13 10:41:58;;;;;;;2.30;1.35;;;29.40;83.20;;;;;;5027248;28;20101;-59
2022/07/13 10:44:36;;;;;;;4.05;1.70;;;29.80;81.40;;;;;;5022307;28;20033;-59
2022/07/13 10:47:03;;;;;;;2.45;1.23;;;30.20;79.50;;;;;;5013315;28;20197;-59
2022/07/13 10:49:38;;;;;;;2.85;1.25;;;30.40;77.70;;;;;;5031272;28;20044;-58
2022/07/13 10:52:22;;;;;;;4.00;1.27;;;30.40;79.00;;;;;;5026279;28;20091;-59
2022/07/13 10:55:03;;;;;;;3.70;1.15;;;30.50;77.10;;;;;;5019861;28;20048;-59
2022/07/13 10:57:30;;;;;;;7.07;1.55;;;30.00;77.60;;;;;;5024016;28;20049;-60
2022/07/13 11:00:16;;;;;;;2.25;1.25;;;30.20;75.70;;;;;;5025001;28;20053;-60
2022/07/13 11:02:43;;;;;;;2.88;1.10;;;30.50;74.90;;;;;;5018077;28;20036;-59
2022/07/13 11:05:09;;;;;;;6.35;1.35;;;30.50;73.80;;;;;;5031090;28;20026;-60
2022/07/13 11:07:46;;;;;;;3.95;1.00;;;30.60;73.00;;;;;;5021931;28;20037;-61
2022/07/13 11:10:22;;;;;;;3.10;1.50;;;30.60;68.80;;;;;;5017775;28;20095;-60
2022/07/13 11:13:04;;;;;;;2.30;0.95;;;30.50;67.10;;;;;;5020173;28;20029;-60
2022/07/13 11:15:53;;;;;;;2.38;1.00;;;30.90;68.20;;;;;;5013218;28;20057;-60
2022/07/13 11:18:25;;;;;;;2.28;1.27;;;30.60;67.60;;;;;;5029048;28;20033;-60
2022/07/13 11:21:16;;;;;;;1.17;1.00;;;30.40;68.20;;;;;;5026289;28;20017;-58
2022/07/13 11:26:39;;;;;;;3.70;1.00;;;30.50;68.90;;;;;;5028310;28;20103;-59
2022/07/13 11:29:16;;;;;;;2.40;1.13;;;30.80;65.30;;;;;;5023178;28;20065;-60
2022/07/13 11:31:43;;;;;;;5.20;1.10;;;30.90;66.20;;;;;;5030456;28;20042;-60
2022/07/13 11:34:08;;;;;;;1.45;1.30;;;30.50;65.50;;;;;;5028654;28;20141;-59
2022/07/13 11:36:34;;;;;;;4.30;1.02;;;30.80;67.10;;;;;;5035763;28;20564;-58
2022/07/13 11:39:00;;;;;;;3.20;1.40;;;30.90;63.80;;;;;;5036080;28;20029;-59
2022/07/13 11:41:26;;;;;;;8.40;1.30;;;30.90;64.70;;;;;;5029576;28;20029;-59
2022/07/13 11:43:53;;;;;;;1.52;1.23;;;31.20;63.70;;;;;;5015867;28;20038;-58
2022/07/13 11:46:23;;;;;;;2.10;1.40;;;31.10;63.30;;;;;;5038206;28;20130;-59
2022/07/13 11:49:10;;;;;;;5.00;1.75;;;30.70;66.40;;;;;;5028180;28;20037;-59
2022/07/13 11:51:35;;;;;;;2.33;1.23;;;31.30;63.70;;;;;;5030344;28;20025;-59
2022/07/13 11:54:09;;;;;;;1.92;1.20;;;31.30;63.50;;;;;;5023074;28;20032;-59
2022/07/13 11:56:35;;;;;;;5.00;1.70;;;31.20;65.20;;;;;;5039769;28;20042;-61
2022/07/13 11:59:01;;;;;;;3.38;2.20;;;31.30;64.90;;;;;;5032810;28;20026;-57
2022/07/13 12:01:28;;;;;;;4.18;1.65;;;31.50;63.60;;;;;;5030655;28;20120;-59
2022/07/13 12:03:54;;;;;;;7.53;2.22;;;31.30;64.00;;;;;;5033172;28;20032;-60
2022/07/13 12:06:27;;;;;;;12.15;2.05;;;31.10;64.10;;;;;;5035317;28;20033;-60
2022/07/13 12:08:53;;;;;;;4.28;1.77;;;31.10;65.00;;;;;;5024881;28;20105;-61
2022/07/13 12:11:18;;;;;;;1.95;1.48;;;31.10;63.20;;;;;;5031615;28;20027;-59
2022/07/13 12:13:46;;;;;;;5.10;1.42;;;31.30;61.40;;;;;;5030226;28;20022;-60
2022/07/13 12:16:13;;;;;;;7.28;1.67;;;31.70;60.60;;;;;;5030622;28;20028;-60
2022/07/13 12:19:06;;;;;;;4.13;1.10;;;31.80;59.80;;;;;;5025831;28;20025;-60
2022/07/13 12:21:32;;;;;;;4.32;1.30;;;31.60;58.60;;;;;;5038376;28;20382;-60
2022/07/13 12:23:59;;;;;;;1.83;1.15;;;32.00;57.70;;;;;;5037376;28;20022;-59
2022/07/13 12:26:26;;;;;;;2.13;1.50;;;31.80;58.80;;;;;;5030590;28;20027;-59
2022/07/13 12:28:52;;;;;;;1.20;1.10;;;32.80;57.10;;;;;;5027230;28;20049;-58
2022/07/13 12:31:22;;;;;;;2.47;1.35;;;33.00;55.40;;;;;;5034311;28;20079;-58
2022/07/13 12:33:52;;;;;;;4.57;1.50;;;32.80;54.00;;;;;;5036354;28;20116;-59
2022/07/13 12:36:20;;;;;;;2.03;1.23;;;33.00;53.80;;;;;;5022683;28;20401;-59
2022/07/13 12:39:02;;;;;;;2.15;1.77;;;33.10;54.50;;;;;;5031418;28;20036;-59
2022/07/13 12:41:34;;;;;;;3.03;0.80;;;33.00;53.30;;;;;;5027425;28;20022;-60
2022/07/13 12:44:05;;;;;;;2.70;1.00;;;32.70;50.80;;;;;;5035420;28;20031;-59
2022/07/13 12:46:52;;;;;;;3.17;1.33;;;32.50;51.30;;;;;;5034465;28;20022;-59
2022/07/13 12:49:18;;;;;;;2.03;1.27;;;32.00;52.40;;;;;;5031207;28;20116;-59
2022/07/13 12:51:52;;;;;;;1.88;1.00;;;31.30;54.50;;;;;;5028301;28;20028;-60
2022/07/13 12:54:46;;;;;;;2.35;1.20;;;31.50;53.90;;;;;;5029338;28;20037;-59
2022/07/13 12:57:23;;;;;;;4.03;1.20;;;32.20;53.80;;;;;;5031859;28;20335;-59
2022/07/13 13:00:01;;;;;;;1.33;1.20;;;31.70;55.30;;;;;;5029390;28;20544;-60